createdAt,value
2023-03-17T00:00:19.616Z,64.10
2023-03-17T00:02:49.441Z,64.03
2023-03-17T00:05:18.515Z,63.80
2023-03-17T00:07:46.692Z,62.20
2023-03-17T00:10:15.332Z,63.74
2023-03-17T00:12:42.560Z,63.98
2023-03-17T00:15:10.234Z,64.40
2023-03-17T00:17:37.158Z,65.01
2023-03-17T00:20:06.704Z,65.40
2023-03-17T00:22:33.567Z,65.47
2023-03-17T00:25:00.625Z,65.42
2023-03-17T00:27:28.308Z,64.20
2023-03-17T00:29:55.174Z,64.12
2023-03-17T00:32:22.473Z,63.63
2023-03-17T00:34:52.102Z,63.97
2023-03-17T00:37:20.139Z,64.91
2023-03-17T00:39:47.137Z,64.61
2023-03-17T00:42:14.047Z,63.76
2023-03-17T00:44:41.615Z,63.85
2023-03-17T00:47:10.870Z,63.06
2023-03-17T00:49:37.865Z,63.31
2023-03-17T00:52:05.085Z,62.07
2023-03-17T00:54:31.976Z,62.48
2023-03-17T00:56:59.870Z,62.93
2023-03-17T00:59:30.615Z,63.04
2023-03-17T01:01:58.043Z,64.01
2023-03-17T01:04:25.628Z,63.64
2023-03-17T01:06:53.123Z,62.90
2023-03-17T01:09:23.225Z,61.68
2023-03-17T01:11:50.842Z,60.94
2023-03-17T01:14:17.988Z,61.14
2023-03-17T01:16:45.145Z,61.60
2023-03-17T01:19:13.678Z,59.93
2023-03-17T01:21:41.675Z,60.34
2023-03-17T01:24:09.634Z,60.88
2023-03-17T01:26:36.957Z,60.75
2023-03-17T01:29:04.961Z,60.82
2023-03-17T01:31:32.000Z,61.37
2023-03-17T01:33:58.929Z,60.07
2023-03-17T01:36:26.194Z,59.77
2023-03-17T01:38:53.772Z,59.43
2023-03-17T01:41:21.173Z,60.04
2023-03-17T01:43:48.170Z,59.28
2023-03-17T01:46:25.453Z,60.60
2023-03-17T01:49:14.662Z,59.93
2023-03-17T01:51:58.966Z,59.82
2023-03-17T01:54:50.498Z,60.36
2023-03-17T01:57:29.678Z,61.20
2023-03-17T01:59:58.780Z,60.35
2023-03-17T02:02:34.644Z,60.65
2023-03-17T02:05:03.869Z,60.79
2023-03-17T02:07:31.435Z,61.27
2023-03-17T02:09:59.025Z,60.64
2023-03-17T02:12:29.019Z,60.26
2023-03-17T02:14:57.404Z,59.24
2023-03-17T02:17:44.211Z,59.52
2023-03-17T02:20:17.249Z,58.91
2023-03-17T02:22:47.272Z,58.26
2023-03-17T02:25:16.165Z,58.61
2023-03-17T02:27:46.611Z,58.56
2023-03-17T02:30:19.882Z,59.19
2023-03-17T02:32:47.408Z,59.18
2023-03-17T02:35:15.529Z,61.48
2023-03-17T02:37:43.824Z,60.72
2023-03-17T02:40:11.424Z,59.96
2023-03-17T02:42:39.480Z,60.92
2023-03-17T02:45:09.133Z,60.99
2023-03-17T02:47:36.211Z,57.24
2023-03-17T02:50:04.905Z,57.36
2023-03-17T02:52:32.174Z,56.88
2023-03-17T02:54:59.161Z,56.74
2023-03-17T02:57:26.654Z,56.90
2023-03-17T02:59:53.524Z,56.59
2023-03-17T03:02:20.518Z,57.04
2023-03-17T03:04:47.805Z,56.75
2023-03-17T03:07:14.687Z,57.51
2023-03-17T03:09:42.134Z,57.49
2023-03-17T03:12:10.134Z,57.46
2023-03-17T03:14:37.572Z,57.07
2023-03-17T03:17:04.564Z,55.95
2023-03-17T03:19:31.524Z,55.48
2023-03-17T03:21:58.448Z,55.86
2023-03-17T03:24:25.312Z,55.95
2023-03-17T03:26:52.258Z,55.56
2023-03-17T03:29:19.216Z,55.60
2023-03-17T03:31:48.185Z,55.80
2023-03-17T03:34:16.454Z,56.31
2023-03-17T03:36:43.548Z,56.34
2023-03-17T03:39:13.108Z,55.14
2023-03-17T03:41:41.312Z,55.63
2023-03-17T03:44:08.246Z,55.90
2023-03-17T03:46:35.336Z,55.21
2023-03-17T03:49:02.428Z,55.44
2023-03-17T03:51:29.338Z,55.09
2023-03-17T03:53:56.208Z,54.90
2023-03-17T03:56:23.085Z,55.05
2023-03-17T03:58:51.285Z,54.33
2023-03-17T04:01:18.618Z,55.07
2023-03-17T04:03:47.409Z,54.89
2023-03-17T04:06:14.745Z,55.83
2023-03-17T04:08:41.920Z,55.31
2023-03-17T04:11:08.946Z,55.76
2023-03-17T04:13:36.079Z,55.21
2023-03-17T04:16:03.364Z,55.35
2023-03-17T04:18:31.695Z,54.97
2023-03-17T04:20:58.658Z,54.05
2023-03-17T04:23:26.053Z,54.62
2023-03-17T04:25:54.058Z,54.59
2023-03-17T04:28:22.526Z,54.73
2023-03-17T04:30:49.589Z,54.09
2023-03-17T04:33:16.765Z,54.97
2023-03-17T04:35:43.778Z,55.06
2023-03-17T04:38:13.267Z,55.31
2023-03-17T04:40:40.160Z,55.88
2023-03-17T04:43:07.265Z,55.70
2023-03-17T04:45:34.214Z,56.42
2023-03-17T04:48:01.578Z,55.69
2023-03-17T04:50:29.042Z,55.65
2023-03-17T04:52:56.627Z,55.83
2023-03-17T04:55:23.576Z,56.21
2023-03-17T04:57:50.609Z,55.84
2023-03-17T05:00:18.302Z,56.91
2023-03-17T05:02:45.200Z,56.72
2023-03-17T05:05:12.939Z,56.16
2023-03-17T05:07:40.442Z,56.13
2023-03-17T05:10:07.887Z,56.69
2023-03-17T05:12:34.731Z,56.10
2023-03-17T05:15:01.672Z,56.16
2023-03-17T05:17:29.759Z,56.16
2023-03-17T05:19:56.631Z,56.25
2023-03-17T05:22:25.835Z,56.15
2023-03-17T05:24:52.785Z,56.11
2023-03-17T05:27:19.673Z,55.15
2023-03-17T05:29:46.581Z,55.01
2023-03-17T05:32:13.916Z,54.34
2023-03-17T05:34:40.782Z,54.02
2023-03-17T05:37:07.721Z,54.62
2023-03-17T05:39:34.733Z,54.43
2023-03-17T05:42:02.309Z,54.22
2023-03-17T05:44:29.192Z,53.69
2023-03-17T05:46:56.113Z,54.06
2023-03-17T05:49:23.167Z,53.71
2023-03-17T05:51:50.329Z,53.56
2023-03-17T05:54:17.537Z,52.59
2023-03-17T05:56:44.449Z,52.01
2023-03-17T05:59:14.937Z,51.87
2023-03-17T06:01:41.880Z,50.84
2023-03-17T06:04:09.220Z,50.91
2023-03-17T06:06:36.173Z,51.44
2023-03-17T06:09:03.125Z,51.33
2023-03-17T06:11:30.236Z,50.71
2023-03-17T06:13:57.251Z,51.08
2023-03-17T06:16:24.324Z,50.52
2023-03-17T06:18:51.236Z,51.52
2023-03-17T06:21:18.215Z,50.25
2023-03-17T06:23:45.333Z,51.23
2023-03-17T06:26:12.611Z,50.33
2023-03-17T06:28:41.888Z,50.74
2023-03-17T06:31:09.421Z,50.73
2023-03-17T06:33:36.307Z,50.52
2023-03-17T06:36:06.537Z,51.50
2023-03-17T06:38:33.700Z,51.19
2023-03-17T06:41:00.778Z,52.66
2023-03-17T06:43:28.468Z,52.80
2023-03-17T06:45:59.238Z,53.41
2023-03-17T06:48:26.522Z,52.89
2023-03-17T06:50:53.439Z,52.45
2023-03-17T06:53:20.796Z,52.74
2023-03-17T06:55:48.282Z,52.74
2023-03-17T06:58:16.026Z,51.78
2023-03-17T07:00:45.518Z,52.59
2023-03-17T07:03:12.574Z,52.79
2023-03-17T07:05:39.451Z,51.45
2023-03-17T07:08:06.731Z,51.61
2023-03-17T07:10:34.128Z,52.33
2023-03-17T07:13:02.444Z,52.36
2023-03-17T07:15:34.686Z,52.62
2023-03-17T07:18:02.495Z,52.23
2023-03-17T07:20:29.578Z,52.96
2023-03-17T07:22:57.000Z,51.33
2023-03-17T07:25:24.673Z,50.62
2023-03-17T07:27:52.076Z,50.19
2023-03-17T07:30:19.420Z,49.41
2023-03-17T07:32:47.796Z,49.86
2023-03-17T07:35:15.617Z,50.25
2023-03-17T07:37:42.804Z,50.39
2023-03-17T07:40:10.388Z,49.58
2023-03-17T07:42:37.710Z,48.51
2023-03-17T07:45:06.115Z,49.52
2023-03-17T07:47:33.064Z,50.00
2023-03-17T08:00:10.240Z,49.60
2023-03-17T08:02:41.116Z,48.84
2023-03-17T08:05:08.999Z,49.87
2023-03-17T08:07:39.441Z,49.26
2023-03-17T08:10:07.881Z,49.28
2023-03-17T08:12:35.234Z,49.54
2023-03-17T08:15:02.303Z,50.16
2023-03-17T08:17:30.078Z,49.47
2023-03-17T08:19:57.394Z,50.36
2023-03-17T08:22:24.988Z,52.76
2023-03-17T08:24:52.052Z,53.08
2023-03-17T08:27:20.830Z,53.11
2023-03-17T08:29:48.336Z,54.41
2023-03-17T08:32:15.248Z,54.33
2023-03-17T08:34:44.440Z,55.27
2023-03-17T08:37:11.682Z,55.17
2023-03-17T08:39:39.010Z,55.39
2023-03-17T08:42:06.165Z,56.25
2023-03-17T08:44:34.373Z,56.79
2023-03-17T08:47:01.672Z,56.65
2023-03-17T08:49:28.677Z,56.88
2023-03-17T08:51:56.058Z,56.24
2023-03-17T08:54:23.115Z,56.10
2023-03-17T08:56:49.969Z,56.54
2023-03-17T08:59:17.124Z,55.93
2023-03-17T09:01:45.559Z,55.85
2023-03-17T09:04:12.665Z,56.49
2023-03-17T09:06:44.091Z,56.22
2023-03-17T09:09:16.945Z,55.78
2023-03-17T09:11:43.905Z,55.45
2023-03-17T09:14:11.398Z,56.29
2023-03-17T09:16:38.801Z,57.69
2023-03-17T09:19:05.738Z,58.03
2023-03-17T09:21:32.707Z,58.63
2023-03-17T09:24:02.256Z,58.96
2023-03-17T09:26:29.551Z,57.46
2023-03-17T09:28:56.469Z,57.19
2023-03-17T09:31:23.466Z,56.90
2023-03-17T09:33:52.466Z,57.61
2023-03-17T09:36:20.406Z,58.33
2023-03-17T09:38:47.307Z,58.02
2023-03-17T09:41:20.002Z,58.47
2023-03-17T09:44:15.892Z,58.85
2023-03-17T09:47:18.696Z,57.84
2023-03-17T09:49:49.397Z,58.05
2023-03-17T09:52:19.007Z,58.71
2023-03-17T09:54:49.587Z,59.49
2023-03-17T09:57:21.240Z,58.49
2023-03-17T10:00:01.590Z,56.77
2023-03-17T10:02:33.770Z,56.31
2023-03-17T10:05:17.798Z,54.74
2023-03-17T10:07:57.276Z,56.97
2023-03-17T10:10:26.910Z,57.26
2023-03-17T10:12:53.756Z,59.27
2023-03-17T10:15:33.025Z,57.06
2023-03-17T10:18:00.897Z,56.85
2023-03-17T10:20:30.284Z,56.42
2023-03-17T10:23:01.688Z,57.38
2023-03-17T10:25:31.962Z,57.67
2023-03-17T10:28:21.504Z,57.46
2023-03-17T10:30:48.402Z,56.40
2023-03-17T10:33:15.929Z,54.80
2023-03-17T10:35:44.969Z,54.03
2023-03-17T10:38:22.230Z,52.80
2023-03-17T10:41:02.424Z,53.72
2023-03-17T10:43:35.600Z,52.52
2023-03-17T10:46:16.203Z,51.60
2023-03-17T10:48:52.413Z,50.27
2023-03-17T10:51:40.671Z,49.97
2023-03-17T10:54:10.719Z,51.37
2023-03-17T10:56:42.082Z,52.55
2023-03-17T10:59:20.051Z,54.28
2023-03-17T11:01:52.998Z,53.26
2023-03-17T11:04:44.172Z,53.36
2023-03-17T11:07:27.220Z,54.44
2023-03-17T11:09:59.271Z,53.34
2023-03-17T11:12:35.290Z,53.79
2023-03-17T11:15:06.270Z,53.23
2023-03-17T11:17:49.416Z,53.88
2023-03-17T11:20:21.176Z,53.73
2023-03-17T11:23:13.922Z,53.82
2023-03-17T11:25:44.658Z,54.61
2023-03-17T11:28:22.182Z,55.97
2023-03-17T11:30:57.236Z,56.96
2023-03-17T11:33:36.408Z,56.39
2023-03-17T11:36:23.342Z,55.81
2023-03-17T11:39:17.826Z,55.91
2023-03-17T11:41:57.148Z,55.28
2023-03-17T11:44:49.359Z,54.57
2023-03-17T11:47:22.350Z,53.01
2023-03-17T11:50:02.237Z,53.65
2023-03-17T11:52:36.850Z,52.67
2023-03-17T11:55:13.004Z,52.87
2023-03-17T11:58:01.415Z,52.22
2023-03-17T12:00:34.867Z,51.39
2023-03-17T12:03:04.917Z,51.10
2023-03-17T12:05:34.986Z,50.08
2023-03-17T12:08:23.680Z,50.00
2023-03-17T12:10:54.665Z,49.08
2023-03-17T12:13:24.040Z,49.42
2023-03-17T12:16:05.516Z,49.45
2023-03-17T12:18:37.595Z,50.20
2023-03-17T12:21:17.625Z,50.28
2023-03-17T12:23:50.569Z,50.32
2023-03-17T12:26:21.254Z,50.58
2023-03-17T12:29:11.671Z,51.38
2023-03-17T12:31:47.648Z,51.00
2023-03-17T12:34:28.732Z,50.72
2023-03-17T12:36:55.871Z,53.17
2023-03-17T12:39:33.660Z,52.92
2023-03-17T12:42:01.696Z,52.59
2023-03-17T12:44:31.663Z,52.92
2023-03-17T12:47:04.621Z,52.07
2023-03-17T12:49:56.098Z,53.31
2023-03-17T12:52:37.979Z,52.65
2023-03-17T12:55:12.554Z,53.20
2023-03-17T12:57:43.768Z,52.09
2023-03-17T13:00:33.916Z,51.59
2023-03-17T13:03:30.453Z,52.69
2023-03-17T13:06:03.301Z,51.95
2023-03-17T13:08:41.310Z,52.97
2023-03-17T13:11:46.753Z,52.69
2023-03-17T13:14:27.215Z,53.32
2023-03-17T13:17:20.407Z,54.01
2023-03-17T13:20:08.933Z,53.29
2023-03-17T13:22:41.856Z,53.07
2023-03-17T13:25:35.552Z,54.86
2023-03-17T13:28:15.215Z,53.95
2023-03-17T13:31:09.093Z,54.40
2023-03-17T13:33:43.418Z,53.93
2023-03-17T13:36:23.169Z,54.26
2023-03-17T13:39:15.156Z,54.45
2023-03-17T13:42:01.056Z,54.12
2023-03-17T13:45:09.710Z,54.20
2023-03-17T13:47:40.005Z,54.10
2023-03-17T13:50:23.598Z,54.49
2023-03-17T13:52:56.815Z,54.23
2023-03-17T13:55:23.929Z,54.00
2023-03-17T13:57:54.084Z,53.83
2023-03-17T14:00:28.118Z,54.36
2023-03-17T14:03:12.297Z,53.17
2023-03-17T14:05:40.344Z,53.86
2023-03-17T14:11:41.433Z,53.69
2023-03-17T14:31:22.695Z,53.69
2023-03-17T14:33:54.348Z,54.27
2023-03-17T14:36:22.110Z,52.85
2023-03-17T14:39:21.949Z,53.68
2023-03-17T14:42:05.154Z,54.92
2023-03-17T14:44:40.338Z,54.24
2023-03-17T14:47:25.388Z,54.86
2023-03-17T14:49:55.485Z,54.68
2023-03-17T14:52:29.425Z,54.86
2023-03-17T14:54:59.243Z,55.17
2023-03-17T14:57:31.210Z,55.93
2023-03-17T15:00:22.212Z,55.54
2023-03-17T15:02:57.301Z,55.93
2023-03-17T15:05:40.341Z,56.95
2023-03-17T15:08:34.540Z,56.26
2023-03-17T15:11:05.697Z,56.29
2023-03-17T15:13:38.566Z,56.15
2023-03-17T15:16:25.103Z,56.41
2023-03-17T15:19:03.117Z,56.74
2023-03-17T15:21:35.623Z,57.38
2023-03-17T15:24:21.514Z,56.96
2023-03-17T15:26:48.684Z,57.34
2023-03-17T15:29:16.219Z,58.33
2023-03-17T15:31:43.225Z,59.30
2023-03-17T15:34:14.624Z,58.39
2023-03-17T15:36:43.559Z,57.76
2023-03-17T15:39:10.828Z,58.54
2023-03-17T15:41:37.802Z,57.29
2023-03-17T15:44:05.336Z,57.63
2023-03-17T15:46:33.579Z,57.54
2023-03-17T15:49:00.972Z,57.40
2023-03-17T15:51:28.191Z,58.29
2023-03-17T15:53:55.315Z,59.08
2023-03-17T15:56:22.248Z,58.86
2023-03-17T15:58:52.360Z,58.77
2023-03-17T16:01:20.074Z,58.94
2023-03-17T16:03:48.626Z,59.26
2023-03-17T16:06:22.117Z,59.60
2023-03-17T16:08:50.444Z,59.05
2023-03-17T16:11:28.113Z,59.02
2023-03-17T16:13:56.323Z,59.21
2023-03-17T16:16:37.324Z,59.79
2023-03-17T16:19:16.038Z,60.38
2023-03-17T16:21:43.314Z,60.88
2023-03-17T16:24:17.984Z,60.89
2023-03-17T16:26:44.898Z,60.57
2023-03-17T16:29:16.108Z,60.77
2023-03-17T16:31:46.448Z,61.76
2023-03-17T16:34:20.818Z,60.79
2023-03-17T16:36:48.601Z,61.49
2023-03-17T16:39:21.250Z,61.77
2023-03-17T16:41:50.044Z,62.47
2023-03-17T16:44:20.522Z,62.01
2023-03-17T16:46:47.949Z,62.54
2023-03-17T16:49:16.269Z,63.34
2023-03-17T16:51:43.912Z,61.90
2023-03-17T16:54:11.386Z,61.72
2023-03-17T16:56:41.237Z,61.58
2023-03-17T16:59:15.323Z,62.30
2023-03-17T17:01:42.432Z,61.31
2023-03-17T17:04:11.191Z,62.13
2023-03-17T17:06:38.221Z,61.76
2023-03-17T17:09:05.337Z,62.79
2023-03-17T17:11:32.263Z,62.46
2023-03-17T17:13:59.920Z,62.19
2023-03-17T17:16:30.023Z,62.86
2023-03-17T17:18:58.052Z,62.94
2023-03-17T17:21:26.370Z,62.99
2023-03-17T17:23:53.975Z,62.44
2023-03-17T17:26:21.516Z,61.45
2023-03-17T17:28:48.632Z,62.98
2023-03-17T17:31:15.678Z,61.79
2023-03-17T17:33:42.698Z,61.46
2023-03-17T17:36:15.772Z,62.18
2023-03-17T17:38:43.192Z,61.45
2023-03-17T17:41:11.425Z,61.79
2023-03-17T17:43:38.899Z,60.83
2023-03-17T17:46:26.105Z,60.61
2023-03-17T17:48:53.048Z,60.52
2023-03-17T17:51:20.245Z,60.60
2023-03-17T17:53:47.124Z,60.20
2023-03-17T17:56:18.259Z,60.53
2023-03-17T17:58:45.757Z,60.45
2023-03-17T18:01:14.346Z,60.53
2023-03-17T18:03:42.971Z,60.57
2023-03-17T18:06:12.952Z,60.27
2023-03-17T18:08:40.646Z,60.61
2023-03-17T18:11:07.809Z,61.49
2023-03-17T18:13:36.241Z,61.89
2023-03-17T18:16:03.942Z,62.81
2023-03-17T18:18:32.844Z,62.93
2023-03-17T18:21:01.400Z,63.74
2023-03-17T18:23:28.382Z,62.74
2023-03-17T18:26:02.790Z,63.31
2023-03-17T18:28:30.834Z,63.13
2023-03-17T18:31:06.622Z,63.29
2023-03-17T18:33:33.625Z,62.81
2023-03-17T18:36:00.852Z,62.29
2023-03-17T18:38:27.914Z,61.35
2023-03-17T18:40:54.884Z,62.02
2023-03-17T18:43:22.060Z,60.62
2023-03-17T18:45:49.436Z,60.67
2023-03-17T18:48:16.578Z,61.13
2023-03-17T18:50:43.480Z,61.26
2023-03-17T18:53:10.441Z,60.81
2023-03-17T18:55:37.351Z,60.71
2023-03-17T18:58:04.374Z,59.93
2023-03-17T19:00:31.576Z,59.55
2023-03-17T19:02:58.546Z,59.71
2023-03-17T19:05:28.443Z,57.01
2023-03-17T19:07:56.088Z,56.05
2023-03-17T19:10:23.038Z,57.80
2023-03-17T19:12:50.662Z,57.61
2023-03-17T19:15:17.725Z,58.21
2023-03-17T19:17:44.610Z,59.12
2023-03-17T19:20:13.201Z,58.05
2023-03-17T19:22:40.484Z,58.90
2023-03-17T19:25:08.682Z,59.39
2023-03-17T19:27:35.686Z,60.34
2023-03-17T19:30:02.548Z,60.23
2023-03-17T19:32:30.665Z,59.55
2023-03-17T19:34:58.284Z,58.73
2023-03-17T19:37:25.200Z,58.95
2023-03-17T19:39:52.156Z,57.63
2023-03-17T19:42:19.124Z,57.88
2023-03-17T19:44:46.103Z,58.30
2023-03-17T19:53:55.990Z,57.80
2023-03-17T19:56:23.188Z,56.88
2023-03-17T19:58:51.236Z,58.07
2023-03-17T20:01:18.375Z,58.18
2023-03-17T20:03:45.791Z,56.94
2023-03-17T20:06:13.348Z,57.66
2023-03-17T20:08:41.835Z,57.40
2023-03-17T20:11:10.710Z,56.21
2023-03-17T20:13:38.506Z,56.80
2023-03-17T20:16:06.833Z,57.09
2023-03-17T20:18:34.264Z,55.60
2023-03-17T20:21:05.379Z,56.22
2023-03-17T20:23:33.465Z,56.09
2023-03-17T20:26:01.376Z,57.29
2023-03-17T20:28:29.981Z,56.80
2023-03-17T20:31:02.781Z,58.03
2023-03-17T20:33:30.694Z,57.74
2023-03-17T20:35:57.735Z,58.28
2023-03-17T20:38:25.620Z,58.36
2023-03-17T20:40:52.609Z,58.30
2023-03-17T20:43:19.449Z,59.62
2023-03-17T20:45:46.355Z,59.23
2023-03-17T20:48:14.136Z,59.35
2023-03-17T20:50:41.415Z,60.58
2023-03-17T20:53:08.793Z,59.10
2023-03-17T20:55:36.451Z,58.92
2023-03-17T20:58:03.985Z,60.10
2023-03-17T21:00:31.968Z,59.42
2023-03-17T21:03:00.974Z,59.21
2023-03-17T21:05:28.528Z,59.99
2023-03-17T21:07:56.709Z,59.35
2023-03-17T21:10:23.838Z,60.89
2023-03-17T21:12:50.842Z,61.94
2023-03-17T21:15:18.393Z,63.32
2023-03-17T21:17:45.293Z,62.30
2023-03-17T21:20:12.720Z,62.07
2023-03-17T21:22:40.488Z,62.84
2023-03-17T21:25:08.956Z,62.74
2023-03-17T21:27:37.874Z,63.84
2023-03-17T21:30:12.256Z,63.50
2023-03-17T21:32:40.519Z,63.64
2023-03-17T21:35:08.624Z,62.65
2023-03-17T21:37:35.897Z,62.63
2023-03-17T21:40:06.983Z,61.86
2023-03-17T21:42:34.541Z,62.36
2023-03-17T21:45:01.494Z,61.82
2023-03-17T21:47:30.119Z,63.36
2023-03-17T21:49:58.044Z,63.12
2023-03-17T21:52:26.202Z,62.90
2023-03-17T21:54:53.353Z,63.39
2023-03-17T21:57:20.516Z,64.61
2023-03-17T21:59:48.137Z,63.14
2023-03-17T22:02:18.376Z,62.47
2023-03-17T22:04:46.961Z,63.69
2023-03-17T22:07:14.115Z,62.91
2023-03-17T22:09:41.835Z,63.13
2023-03-17T22:12:09.310Z,62.57
2023-03-17T22:14:36.518Z,63.88
2023-03-17T22:17:05.392Z,63.61
2023-03-17T22:19:33.450Z,62.75
2023-03-17T22:22:00.411Z,63.32
2023-03-17T22:24:27.515Z,63.70
2023-03-17T22:26:55.788Z,63.08
2023-03-17T22:29:22.784Z,62.93
2023-03-17T22:31:49.814Z,63.59
2023-03-17T22:34:17.417Z,62.77
2023-03-17T22:36:44.330Z,62.94
2023-03-17T22:39:11.952Z,63.59
2023-03-17T22:41:39.423Z,63.11
2023-03-17T22:44:09.116Z,62.90
2023-03-17T22:46:37.816Z,63.08
2023-03-17T22:49:06.018Z,63.84
2023-03-17T22:51:32.912Z,63.36
2023-03-17T22:54:00.218Z,63.32
2023-03-17T22:56:27.618Z,63.22
2023-03-17T22:58:55.789Z,62.84
2023-03-17T23:01:25.722Z,63.74
2023-03-17T23:03:54.417Z,65.21
2023-03-17T23:06:22.101Z,65.09
2023-03-17T23:08:49.355Z,65.19
2023-03-17T23:11:19.865Z,65.09
2023-03-17T23:13:48.000Z,64.32
2023-03-17T23:16:15.550Z,64.10
2023-03-17T23:18:44.701Z,64.63
2023-03-17T23:21:40.025Z,64.44
2023-03-17T23:24:08.592Z,63.88
2023-03-17T23:26:37.124Z,64.21
2023-03-17T23:29:07.032Z,63.99
2023-03-17T23:31:34.578Z,64.19
2023-03-17T23:34:01.456Z,63.94
2023-03-17T23:36:28.483Z,63.38
2023-03-17T23:38:55.435Z,63.84
2023-03-17T23:41:22.768Z,63.60
2023-03-17T23:43:49.929Z,63.99
2023-03-17T23:46:17.383Z,63.06
2023-03-17T23:48:45.004Z,63.93
2023-03-17T23:51:14.380Z,63.11
2023-03-17T23:53:41.867Z,63.14
2023-03-17T23:56:11.329Z,63.67
2023-03-17T23:58:39.005Z,63.47
